sensor_id;sensor_type;location;lat;lon;timestamp;P1;durP1;ratioP1;P2;durP2;ratioP2
44068;SDS011;29738;51.234;5.484;2023-09-18T01:11:04;12.48;;;7.43;;
44068;SDS011;29738;51.234;5.484;2023-09-18T01:13:45;11.80;;;6.88;;
44068;SDS011;29738;51.234;5.484;2023-09-18T02:13:29;13.23;;;5.80;;
44068;SDS011;29738;51.234;5.484;2023-09-18T02:31:32;9.85;;;4.60;;
44068;SDS011;29738;51.234;5.484;2023-09-18T03:28:54;8.52;;;4.38;;
44068;SDS011;29738;51.234;5.484;2023-09-18T03:31:38;8.27;;;4.20;;
44068;SDS011;29738;51.234;5.484;2023-09-18T04:46:26;6.82;;;2.00;;
44068;SDS011;29738;51.234;5.484;2023-09-18T06:07:08;6.95;;;1.70;;
44068;SDS011;29738;51.234;5.484;2023-09-18T06:19:59;4.18;;;1.30;;
44068;SDS011;29738;51.234;5.484;2023-09-18T06:22:29;4.13;;;1.30;;
44068;SDS011;29738;51.234;5.484;2023-09-18T06:24:55;4.15;;;1.45;;
44068;SDS011;29738;51.234;5.484;2023-09-18T06:27:20;4.85;;;1.60;;
44068;SDS011;29738;51.234;5.484;2023-09-18T06:29:46;3.47;;;1.33;;
44068;SDS011;29738;51.234;5.484;2023-09-18T06:32:12;4.20;;;1.50;;
44068;SDS011;29738;51.234;5.484;2023-09-18T06:34:38;4.70;;;1.50;;
44068;SDS011;29738;51.234;5.484;2023-09-18T06:37:10;3.70;;;1.40;;
44068;SDS011;29738;51.234;5.484;2023-09-18T06:42:13;3.45;;;1.30;;
44068;SDS011;29738;51.234;5.484;2023-09-18T06:44:39;4.10;;;1.60;;
44068;SDS011;29738;51.234;5.484;2023-09-18T07:31:07;3.28;;;1.30;;
44068;SDS011;29738;51.234;5.484;2023-09-18T07:33:34;4.70;;;1.42;;
44068;SDS011;29738;51.234;5.484;2023-09-18T07:36:02;3.75;;;1.42;;
44068;SDS011;29738;51.234;5.484;2023-09-18T07:38:28;5.72;;;1.50;;
44068;SDS011;29738;51.234;5.484;2023-09-18T07:40:55;3.25;;;1.10;;
44068;SDS011;29738;51.234;5.484;2023-09-18T07:43:21;3.90;;;1.05;;
44068;SDS011;29738;51.234;5.484;2023-09-18T07:45:48;6.00;;;1.67;;
44068;SDS011;29738;51.234;5.484;2023-09-18T07:48:14;3.85;;;1.70;;
44068;SDS011;29738;51.234;5.484;2023-09-18T07:50:44;3.90;;;1.30;;
44068;SDS011;29738;51.234;5.484;2023-09-18T07:53:10;5.47;;;1.88;;
44068;SDS011;29738;51.234;5.484;2023-09-18T07:55:37;3.53;;;1.30;;
44068;SDS011;29738;51.234;5.484;2023-09-18T07:58:03;4.97;;;1.58;;
44068;SDS011;29738;51.234;5.484;2023-09-18T08:00:30;3.33;;;1.27;;
44068;SDS011;29738;51.234;5.484;2023-09-18T08:02:58;5.35;;;1.75;;
44068;SDS011;29738;51.234;5.484;2023-09-18T08:05:26;3.90;;;1.48;;
44068;SDS011;29738;51.234;5.484;2023-09-18T08:07:53;9.00;;;1.77;;
44068;SDS011;29738;51.234;5.484;2023-09-18T08:10:31;5.57;;;1.95;;
44068;SDS011;29738;51.234;5.484;2023-09-18T08:53:53;4.15;;;1.42;;
44068;SDS011;29738;51.234;5.484;2023-09-18T08:56:20;5.28;;;1.67;;
44068;SDS011;29738;51.234;5.484;2023-09-18T08:58:47;4.40;;;1.50;;
44068;SDS011;29738;51.234;5.484;2023-09-18T09:01:13;4.80;;;1.77;;
44068;SDS011;29738;51.234;5.484;2023-09-18T09:03:40;4.15;;;1.85;;
44068;SDS011;29738;51.234;5.484;2023-09-18T09:06:11;6.07;;;1.73;;
44068;SDS011;29738;51.234;5.484;2023-09-18T09:08:37;4.90;;;1.50;;
44068;SDS011;29738;51.234;5.484;2023-09-18T09:11:04;6.07;;;1.50;;
44068;SDS011;29738;51.234;5.484;2023-09-18T09:16:05;3.53;;;1.30;;
44068;SDS011;29738;51.234;5.484;2023-09-18T14:50:18;5.95;;;1.73;;
44068;SDS011;29738;51.234;5.484;2023-09-18T14:52:52;3.92;;;1.85;;
44068;SDS011;29738;51.234;5.484;2023-09-18T14:55:22;5.85;;;1.88;;
44068;SDS011;29738;51.234;5.484;2023-09-18T14:57:55;5.10;;;1.92;;
44068;SDS011;29738;51.234;5.484;2023-09-18T15:00:46;5.07;;;1.42;;
44068;SDS011;29738;51.234;5.484;2023-09-18T15:18:47;3.85;;;1.52;;
44068;SDS011;29738;51.234;5.484;2023-09-18T20:03:59;5.63;;;1.60;;
44068;SDS011;29738;51.234;5.484;2023-09-18T20:06:25;5.28;;;1.13;;
44068;SDS011;29738;51.234;5.484;2023-09-18T20:08:55;4.80;;;1.65;;
44068;SDS011;29738;51.234;5.484;2023-09-18T20:19:07;5.85;;;1.40;;
44068;SDS011;29738;51.234;5.484;2023-09-18T20:21:42;7.30;;;1.75;;
44068;SDS011;29738;51.234;5.484;2023-09-18T20:39:41;8.35;;;1.55;;
44068;SDS011;29738;51.234;5.484;2023-09-18T21:02:50;6.35;;;1.63;;
44068;SDS011;29738;51.234;5.484;2023-09-18T21:05:19;6.18;;;1.42;;
44068;SDS011;29738;51.234;5.484;2023-09-18T21:07:44;8.05;;;1.85;;
44068;SDS011;29738;51.234;5.484;2023-09-18T23:34:44;6.90;;;1.77;;
